Derby Line, Vermont
Current Conditions -  °F | °C
As of 6:15 PM on Saturday 25 Oct 2014 (Local Time) from KEFK Reporting Station
Moderate Rain Moderate Rain  
Wind Chill: 51°   Ceiling: 4800
Heat Index: 51°   Visibility: 10mi
Dew Point: 44°   Wind: 8mph
Humidity: 77%   Direction: 210°SSW
Pressure: 29.53"   Gusts: NA
Location:  45°N, 72.1°W
Report Text: KEFK 252215Z AUTO 21007KT 10SM RA SCT039 BKN048 OVC075 11/07 A2953 RMK AO2 T01060068
Loading
Personal Weather Stations






























Interactive Weather Map
Tropical Storm Tracking
New forecast layout! Learn more

10-Day Weather Forecast

Advertisements
Track Severe Weather on mobile